createdAt,value
2023-04-22T05:35:30.136Z,0
2023-04-22T06:53:39.554Z,0
2023-04-22T06:59:10.980Z,0
2023-04-22T07:15:45.396Z,0
2023-04-22T07:26:49.774Z,0
2023-04-22T07:32:37.778Z,0
2023-04-22T07:38:06.724Z,0
2023-04-22T07:49:08.421Z,0
2023-04-22T07:54:33.577Z,0
2023-04-22T08:00:22.435Z,3.6
2023-04-22T08:05:50.875Z,0
2023-04-22T08:11:14.788Z,0
2023-04-22T08:16:53.980Z,0
2023-04-22T08:22:42.409Z,0
2023-04-22T08:27:59.834Z,0
2023-04-22T08:33:27.941Z,0
2023-04-22T08:39:28.511Z,0
2023-04-22T08:44:50.676Z,0
2023-04-22T08:50:33.880Z,0
2023-04-22T08:56:05.315Z,0
2023-04-22T09:01:40.721Z,3.6
2023-04-22T09:12:51.302Z,0
2023-04-22T09:18:12.083Z,0
2023-04-22T09:24:05.525Z,0
2023-04-22T09:29:26.249Z,2.4
2023-04-22T09:35:07.903Z,0
2023-04-22T09:40:52.567Z,0
2023-04-22T09:46:27.957Z,4.8
2023-04-22T09:51:34.074Z,9.6
2023-04-22T09:57:31.341Z,10.7
2023-04-22T10:03:07.345Z,4.8
2023-04-22T10:08:28.727Z,7.2
2023-04-22T10:14:11.515Z,9.6
2023-04-22T10:19:41.260Z,10.7
2023-04-22T10:25:21.941Z,5.9
2023-04-22T10:30:46.087Z,5.9
2023-04-22T10:36:28.373Z,4.8
2023-04-22T10:41:47.308Z,3.6
2023-04-22T10:47:36.570Z,3.6
2023-04-22T10:53:26.462Z,0
2023-04-22T10:58:49.980Z,3.6
2023-04-22T11:04:34.241Z,4.8
2023-04-22T11:10:10.608Z,5.9
2023-04-22T11:15:35.955Z,9.6
2023-04-22T11:21:01.025Z,9.6
2023-04-22T11:32:10.460Z,5.9
2023-04-22T11:37:41.235Z,4.8
2023-04-22T11:43:23.130Z,3.6
2023-04-22T11:48:51.870Z,5.9
2023-04-22T11:54:30.630Z,7.2
2023-04-22T12:00:26.661Z,7.2
2023-04-22T12:05:50.450Z,8.4
2023-04-22T12:11:29.850Z,9.6
2023-04-22T12:22:46.679Z,7.2
2023-04-22T12:28:20.237Z,8.4
2023-04-22T12:33:54.714Z,9.6
2023-04-22T12:39:26.736Z,9.6
2023-04-22T12:45:13.213Z,7.2
2023-04-22T12:56:05.459Z,7.2
2023-04-22T13:01:47.330Z,9.6
2023-04-22T13:07:36.043Z,8.4
2023-04-22T13:13:06.284Z,5.9
2023-04-22T13:18:24.210Z,4.8
2023-04-22T13:35:20.882Z,4.8
2023-04-22T13:51:56.787Z,0
2023-04-22T14:03:17.148Z,0
2023-04-22T14:53:27.824Z,0
2023-04-22T16:17:00.339Z,0
2023-04-22T16:22:26.730Z,0
2023-04-22T16:39:37.642Z,0
2023-04-22T18:14:17.817Z,0
